Time;durP1;ratioP1;P1;durP2;ratioP2;P2;SDS_P1;SDS_P2;PMS_P1;PMS_P2;Temp;Humidity;BMP_temperature;BMP_pressure;BME280_temperature;BME280_humidity;BME280_pressure;Samples;Min_cycle;Max_cycle;Signal;HPM_P1;HPM_P2
2022/04/27 00:00:49;;;;;;;72.30;30.70;;;;;;;;;;6227296;28;20136;-57
2022/04/27 00:03:53;;;;;;;77.03;32.30;;;;;;;;;;6242515;28;20528;-59
2022/04/27 00:06:55;;;;;;;78.40;32.92;;;;;;;;;;6241802;28;20087;-59
2022/04/27 00:09:56;;;;;;;65.85;30.35;;;;;;;;;;6261774;28;20481;-57
2022/04/27 00:12:59;;;;;;;66.00;30.42;;;;;;;;;;6243013;28;20053;-58
2022/04/27 00:16:10;;;;;;;72.43;30.45;;;;;;;;;;6242462;28;20059;-57
2022/04/27 00:19:11;;;;;;;70.97;29.67;;;;;;;;;;6259729;28;20045;-56
2022/04/27 00:22:13;;;;;;;74.63;32.63;;;;;;;;;;6262154;28;20129;-57
2022/04/27 00:25:18;;;;;;;68.43;30.58;;;;;;;;;;6244173;28;20076;-56
2022/04/27 00:28:23;;;;;;;70.13;31.98;;;;;;;;;;6260497;28;20037;-56
2022/04/27 00:31:25;;;;;;;74.72;31.05;;;;;;;;;;6261710;28;20522;-57
2022/04/27 00:34:26;;;;;;;77.50;34.17;;;;;;;;;;6259699;28;20095;-57
2022/04/27 00:37:30;;;;;;;72.05;31.27;;;;;;;;;;6274173;28;20859;-56
2022/04/27 00:40:31;;;;;;;67.75;28.40;;;;;;;;;;6260087;28;20060;-57
2022/04/27 00:43:44;;;;;;;63.17;27.88;;;;;;;;;;6258725;28;20045;-57
2022/04/27 00:46:45;;;;;;;;;;;;;;;;;;6257110;28;20598;-57
2022/04/27 00:49:51;;;;;;;81.82;33.70;;;;;;;;;;6256032;28;19924;-59
2022/04/27 00:52:53;;;;;;;60.42;28.23;;;;;;;;;;6245478;28;20415;-58
2022/04/27 00:56:00;;;;;;;72.45;29.45;;;;;;;;;;6242164;28;20068;-59
2022/04/27 00:59:01;;;;;;;71.25;30.27;;;;;;;;;;6257230;28;20056;-58
2022/04/27 01:02:05;;;;;;;65.50;29.55;;;;;;;;;;6260577;28;20048;-57
2022/04/27 01:05:09;;;;;;;63.92;28.17;;;;;;;;;;6261208;28;20052;-59
2022/04/27 01:08:12;;;;;;;65.88;28.10;;;;;;;;;;6257593;28;20140;-59
2022/04/27 01:11:13;;;;;;;71.57;31.08;;;;;;;;;;6259228;28;20048;-58
2022/04/27 01:14:14;;;;;;;71.97;32.25;;;;;;;;;;6261187;28;20463;-60
2022/04/27 01:17:17;;;;;;;69.90;30.70;;;;;;;;;;6243527;28;20095;-60
2022/04/27 01:20:18;;;;;;;70.32;30.05;;;;;;;;;;6272538;28;20140;-58
2022/04/27 01:23:19;;;;;;;68.65;31.58;;;;;;;;;;6260085;28;20045;-58
2022/04/27 01:26:24;;;;;;;69.97;30.58;;;;;;;;;;6242401;28;20049;-57
2022/04/27 01:29:26;;;;;;;75.47;33.38;;;;;;;;;;6258269;28;20048;-59
2022/04/27 01:32:28;;;;;;;82.60;34.58;;;;;;;;;;6258015;28;20059;-58
2022/04/27 01:35:30;;;;;;;89.75;39.25;;;;;;;;;;6258905;28;20478;-59
2022/04/27 01:38:35;;;;;;;82.20;36.33;;;;;;;;;;6260452;28;20080;-58
2022/04/27 01:41:37;;;;;;;87.75;38.60;;;;;;;;;;6258078;28;20037;-60
2022/04/27 01:44:38;;;;;;;90.35;37.50;;;;;;;;;;6260619;28;20064;-59
2022/04/27 01:47:40;;;;;;;92.43;38.72;;;;;;;;;;6261539;28;20465;-59
2022/04/27 01:50:41;;;;;;;86.37;38.07;;;;;;;;;;6261943;28;20144;-59
2022/04/27 01:57:01;;;;;;;104.53;43.45;;;;;;;;;;6251795;28;20511;-59
2022/04/27 02:00:04;;;;;;;104.50;45.58;;;;;;;;;;6249889;28;20496;-58
2022/04/27 02:03:06;;;;;;;93.57;38.00;;;;;;;;;;6252859;28;20049;-57
2022/04/27 02:06:07;;;;;;;86.78;36.75;;;;;;;;;;6269578;28;20122;-57
2022/04/27 02:09:08;;;;;;;87.22;37.63;;;;;;;;;;6246771;28;20045;-59
2022/04/27 02:12:11;;;;;;;81.25;37.45;;;;;;;;;;6263636;28;20073;-60
2022/04/27 02:15:12;;;;;;;84.60;38.00;;;;;;;;;;6246867;28;20076;-60
2022/04/27 02:18:16;;;;;;;83.38;37.92;;;;;;;;;;6263951;28;20049;-58
2022/04/27 02:21:17;;;;;;;91.55;39.60;;;;;;;;;;6244737;28;20455;-59
2022/04/27 02:24:19;;;;;;;88.85;38.58;;;;;;;;;;6263461;28;20051;-56
2022/04/27 02:27:20;;;;;;;81.45;36.10;;;;;;;;;;6264562;28;20084;-58
2022/04/27 02:30:22;;;;;;;84.47;36.67;;;;;;;;;;6243549;28;20049;-57
2022/04/27 02:33:25;;;;;;;98.50;44.13;;;;;;;;;;6263707;28;20080;-56
2022/04/27 02:36:26;;;;;;;91.03;40.47;;;;;;;;;;6263548;28;20048;-59
2022/04/27 02:39:27;;;;;;;90.13;39.55;;;;;;;;;;6261875;28;20944;-59
2022/04/27 02:42:29;;;;;;;86.50;38.35;;;;;;;;;;6262832;28;20045;-57
2022/04/27 02:45:30;;;;;;;107.82;46.33;;;;;;;;;;6265284;28;20053;-60
2022/04/27 02:48:31;;;;;;;95.85;40.72;;;;;;;;;;6264936;28;20136;-56
2022/04/27 02:54:52;;;;;;;87.95;38.65;;;;;;;;;;6247290;28;20042;-58
2022/04/27 02:57:54;;;;;;;90.50;40.33;;;;;;;;;;6243463;28;20138;-57
2022/04/27 03:00:55;;;;;;;90.13;40.35;;;;;;;;;;6263783;28;20075;-59
2022/04/27 03:03:56;;;;;;;95.82;40.55;;;;;;;;;;6260494;28;20049;-58
2022/04/27 03:06:56;;;;;;;88.80;38.70;;;;;;;;;;6261475;28;20102;-57
2022/04/27 03:09:57;;;;;;;89.13;39.28;;;;;;;;;;6262766;28;20044;-57
2022/04/27 03:12:59;;;;;;;88.32;38.08;;;;;;;;;;6262744;28;20476;-56
2022/04/27 03:16:00;;;;;;;93.93;39.47;;;;;;;;;;6264390;28;20054;-59
2022/04/27 03:19:01;;;;;;;92.68;39.10;;;;;;;;;;6262826;28;20172;-58
2022/04/27 03:22:02;;;;;;;90.32;38.70;;;;;;;;;;6261976;28;20123;-57
2022/04/27 03:25:03;;;;;;;81.95;36.97;;;;;;;;;;6263054;28;20048;-58
2022/04/27 03:28:04;;;;;;;87.28;38.35;;;;;;;;;;6263210;28;20080;-58
2022/04/27 03:31:05;;;;;;;90.85;38.88;;;;;;;;;;6263999;28;20053;-58
2022/04/27 03:34:05;;;;;;;91.82;40.38;;;;;;;;;;6263647;28;20059;-57
2022/04/27 03:37:07;;;;;;;90.45;38.17;;;;;;;;;;6262715;28;20594;-58
2022/04/27 03:40:09;;;;;;;85.05;38.33;;;;;;;;;;6262706;28;20491;-58
2022/04/27 03:43:10;;;;;;;85.80;40.00;;;;;;;;;;6259366;28;20194;-59
2022/04/27 03:46:11;;;;;;;91.50;39.95;;;;;;;;;;6260024;28;20049;-58
2022/04/27 03:49:11;;;;;;;106.82;44.85;;;;;;;;;;6265978;28;20140;-58
2022/04/27 03:52:12;;;;;;;96.15;43.58;;;;;;;;;;6266151;28;20049;-59
2022/04/27 03:55:13;;;;;;;99.35;44.50;;;;;;;;;;6265240;28;20076;-58
2022/04/27 03:58:14;;;;;;;110.20;42.97;;;;;;;;;;6263016;28;20080;-58
2022/04/27 04:01:14;;;;;;;101.72;41.83;;;;;;;;;;6256511;28;20251;-56
2022/04/27 04:04:15;;;;;;;82.32;39.30;;;;;;;;;;6260479;28;20366;-58
2022/04/27 04:07:15;;;;;;;82.95;38.13;;;;;;;;;;6264960;28;20045;-57
2022/04/27 04:10:16;;;;;;;75.85;34.30;;;;;;;;;;6266701;28;20160;-60
2022/04/27 04:13:17;;;;;;;75.57;34.25;;;;;;;;;;6264363;28;20045;-57
2022/04/27 04:16:18;;;;;;;87.53;36.10;;;;;;;;;;6263570;28;20037;-58
2022/04/27 04:19:18;;;;;;;90.85;37.00;;;;;;;;;;6261051;28;20076;-58
2022/04/27 04:22:19;;;;;;;83.32;34.40;;;;;;;;;;6259352;28;20057;-58
2022/04/27 04:28:39;;;;;;;76.50;32.15;;;;;;;;;;6264115;28;20037;-59
2022/04/27 04:31:40;;;;;;;74.78;31.05;;;;;;;;;;6266690;28;20049;-58
2022/04/27 04:34:40;;;;;;;70.05;30.63;;;;;;;;;;6264850;28;20065;-60
2022/04/27 04:37:41;;;;;;;70.65;30.20;;;;;;;;;;6266830;28;20140;-57
2022/04/27 04:40:41;;;;;;;62.17;27.15;;;;;;;;;;6266743;28;20049;-57
2022/04/27 04:43:42;;;;;;;62.38;27.83;;;;;;;;;;6264720;28;20132;-59
2022/04/27 04:46:42;;;;;;;62.03;28.77;;;;;;;;;;6266473;28;20059;-57
2022/04/27 04:49:43;;;;;;;54.22;26.58;;;;;;;;;;6266792;28;20073;-57
2022/04/27 04:52:46;;;;;;;48.97;22.90;;;;;;;;;;6265169;28;20049;-64
2022/04/27 04:55:46;;;;;;;51.35;23.92;;;;;;;;;;6264868;28;20045;-58
2022/04/27 04:58:47;;;;;;;58.22;29.17;;;;;;;;;;6261672;28;20045;-58
2022/04/27 05:01:47;;;;;;;58.08;26.52;;;;;;;;;;6263091;28;20551;-58
2022/04/27 05:04:49;;;;;;;49.78;22.63;;;;;;;;;;6260213;28;20055;-60
2022/04/27 05:07:49;;;;;;;47.07;21.43;;;;;;;;;;6261782;28;20485;-58
2022/04/27 05:10:50;;;;;;;54.05;24.33;;;;;;;;;;6261023;28;20053;-59
2022/04/27 05:13:51;;;;;;;50.13;22.15;;;;;;;;;;6258862;28;20047;-59
2022/04/27 05:16:51;;;;;;;50.53;22.27;;;;;;;;;;6261935;28;20140;-59
2022/04/27 05:19:53;;;;;;;51.78;23.73;;;;;;;;;;6260430;28;20048;-59
2022/04/27 05:22:54;;;;;;;49.53;21.70;;;;;;;;;;6260168;28;20048;-58
2022/04/27 05:25:55;;;;;;;56.17;22.80;;;;;;;;;;6261539;28;20131;-58
2022/04/27 05:32:14;;;;;;;46.70;21.25;;;;;;;;;;6261981;28;20464;-59
2022/04/27 05:35:15;;;;;;;50.83;22.60;;;;;;;;;;6264363;28;20063;-58
2022/04/27 05:38:16;;;;;;;51.95;21.63;;;;;;;;;;6265154;28;20140;-58
2022/04/27 05:41:16;;;;;;;40.78;17.90;;;;;;;;;;6266505;28;20403;-59
2022/04/27 05:44:22;;;;;;;39.67;18.10;;;;;;;;;;6264573;28;20579;-58
2022/04/27 05:47:25;;;;;;;39.65;18.25;;;;;;;;;;6265617;28;20052;-58
2022/04/27 05:50:25;;;;;;;36.95;16.85;;;;;;;;;;6266308;28;20049;-59
2022/04/27 05:53:27;;;;;;;33.08;15.27;;;;;;;;;;6266707;28;20087;-59
2022/04/27 05:56:27;;;;;;;36.80;15.65;;;;;;;;;;6265795;28;20126;-59
2022/04/27 05:59:28;;;;;;;39.63;17.20;;;;;;;;;;6267018;28;20053;-60
2022/04/27 06:02:29;;;;;;;36.28;17.05;;;;;;;;;;6265949;28;20047;-60
2022/04/27 06:05:30;;;;;;;36.73;16.03;;;;;;;;;;6266652;28;20045;-59
2022/04/27 06:08:31;;;;;;;40.03;18.13;;;;;;;;;;6267900;28;20147;-60
2022/04/27 06:11:31;;;;;;;37.85;17.15;;;;;;;;;;6268325;28;20049;-60
2022/04/27 06:14:32;;;;;;;38.28;17.45;;;;;;;;;;6265841;28;20512;-59
2022/04/27 06:17:33;;;;;;;39.00;17.98;;;;;;;;;;6269018;28;20106;-60
2022/04/27 06:20:33;;;;;;;41.42;18.13;;;;;;;;;;6268745;28;20052;-61
2022/04/27 06:23:35;;;;;;;36.00;16.88;;;;;;;;;;6267410;28;20072;-60
2022/04/27 06:26:36;;;;;;;40.00;17.73;;;;;;;;;;6268920;28;20084;-60
2022/04/27 06:29:37;;;;;;;38.30;16.95;;;;;;;;;;6268475;28;20199;-60
2022/04/27 06:32:37;;;;;;;39.72;17.67;;;;;;;;;;6266882;28;20052;-60
2022/04/27 06:35:40;;;;;;;39.65;18.20;;;;;;;;;;6264549;28;20914;-60
2022/04/27 06:38:41;;;;;;;36.40;16.90;;;;;;;;;;6266755;28;20466;-60
2022/04/27 06:41:42;;;;;;;34.60;15.70;;;;;;;;;;6267063;28;20041;-60
2022/04/27 06:44:43;;;;;;;38.05;16.48;;;;;;;;;;6265608;28;20175;-59
2022/04/27 06:47:44;;;;;;;30.97;14.83;;;;;;;;;;6269001;28;20079;-61
2022/04/27 06:50:44;;;;;;;31.55;13.85;;;;;;;;;;6268779;28;20052;-60
2022/04/27 06:53:47;;;;;;;25.20;12.20;;;;;;;;;;6265392;28;20056;-61
2022/04/27 06:56:48;;;;;;;30.80;13.48;;;;;;;;;;6265851;28;20053;-60
2022/04/27 06:59:48;;;;;;;26.88;12.93;;;;;;;;;;6265599;28;20064;-58
2022/04/27 07:02:49;;;;;;;30.27;13.55;;;;;;;;;;6263940;28;20080;-61
2022/04/27 07:05:50;;;;;;;28.02;13.45;;;;;;;;;;6265097;28;20086;-60
2022/04/27 07:08:50;;;;;;;27.67;12.88;;;;;;;;;;6267826;28;20143;-59
2022/04/27 07:11:52;;;;;;;24.90;11.45;;;;;;;;;;6265919;28;20570;-59
2022/04/27 07:14:53;;;;;;;23.42;11.18;;;;;;;;;;6266438;28;20419;-61
2022/04/27 07:17:53;;;;;;;23.38;11.65;;;;;;;;;;6266925;28;20137;-58
2022/04/27 07:20:54;;;;;;;21.33;10.48;;;;;;;;;;6266900;28;20139;-59
2022/04/27 07:23:56;;;;;;;21.08;10.25;;;;;;;;;;6262074;28;20049;-59
2022/04/27 07:26:57;;;;;;;23.55;11.00;;;;;;;;;;6265814;28;20083;-60
2022/04/27 07:29:59;;;;;;;20.50;10.30;;;;;;;;;;6265458;28;20496;-60
2022/04/27 07:32:59;;;;;;;22.30;11.67;;;;;;;;;;6262755;28;20144;-60
2022/04/27 07:36:00;;;;;;;21.75;10.60;;;;;;;;;;6266052;28;20913;-59
2022/04/27 07:39:01;;;;;;;18.13;8.70;;;;;;;;;;6267262;28;20223;-59
2022/04/27 07:42:02;;;;;;;17.17;8.95;;;;;;;;;;6265219;28;20049;-60
2022/04/27 07:45:04;;;;;;;17.58;9.23;;;;;;;;;;6263595;28;20044;-59
2022/04/27 07:48:05;;;;;;;;;;;;;;;;;;6264415;28;20408;-60
2022/04/27 07:51:06;;;;;;;18.23;8.77;;;;;;;;;;6265041;28;20046;-60
2022/04/27 07:54:07;;;;;;;20.50;9.15;;;;;;;;;;6262540;28;20068;-60
2022/04/27 07:57:07;;;;;;;16.35;8.05;;;;;;;;;;6264727;28;20123;-59
2022/04/27 08:00:11;;;;;;;19.58;10.10;;;;;;;;;;6264738;28;20041;-60
2022/04/27 08:03:12;;;;;;;16.90;8.98;;;;;;;;;;6263855;28;20132;-59
2022/04/27 08:06:13;;;;;;;17.65;9.18;;;;;;;;;;6264287;28;20484;-59
2022/04/27 08:09:13;;;;;;;20.88;10.30;;;;;;;;;;6263009;28;20239;-60
2022/04/27 08:12:14;;;;;;;51.03;20.85;;;;;;;;;;6263893;28;20060;-61
2022/04/27 08:15:20;;;;;;;56.00;21.25;;;;;;;;;;6264866;28;20547;-58
2022/04/27 08:18:20;;;;;;;38.60;14.55;;;;;;;;;;6262506;28;20055;-60
2022/04/27 08:21:23;;;;;;;19.75;9.77;;;;;;;;;;6264382;28;20072;-60
2022/04/27 08:24:24;;;;;;;35.88;14.05;;;;;;;;;;6262353;28;20140;-60
2022/04/27 08:27:25;;;;;;;47.97;16.60;;;;;;;;;;6264115;28;20443;-59
2022/04/27 08:30:26;;;;;;;24.80;10.75;;;;;;;;;;6262543;28;20052;-59
2022/04/27 08:33:26;;;;;;;18.05;8.98;;;;;;;;;;6262736;28;20156;-60
2022/04/27 08:36:27;;;;;;;20.02;9.80;;;;;;;;;;6262299;28;20135;-60
2022/04/27 08:39:28;;;;;;;17.27;9.38;;;;;;;;;;6265800;28;20099;-60
2022/04/27 08:42:28;;;;;;;18.33;8.80;;;;;;;;;;6264992;28;20131;-59
2022/04/27 08:45:29;;;;;;;18.00;8.95;;;;;;;;;;6261949;28;20126;-59
2022/04/27 08:48:31;;;;;;;15.13;8.47;;;;;;;;;;6265165;28;20060;-60
2022/04/27 08:51:31;;;;;;;17.83;8.80;;;;;;;;;;6263779;28;20306;-61
2022/04/27 08:54:33;;;;;;;16.52;8.77;;;;;;;;;;6264284;28;20056;-60
2022/04/27 08:57:34;;;;;;;18.07;9.70;;;;;;;;;;6262111;28;20148;-60
2022/04/27 09:00:35;;;;;;;19.00;9.82;;;;;;;;;;6263617;28;20045;-60
2022/04/27 09:03:38;;;;;;;15.77;8.33;;;;;;;;;;6262770;28;20044;-60
2022/04/27 09:06:39;;;;;;;17.17;8.55;;;;;;;;;;6264267;28;20072;-60
2022/04/27 09:09:39;;;;;;;15.25;8.07;;;;;;;;;;6264066;28;20053;-60
2022/04/27 09:12:49;;;;;;;15.25;8.30;;;;;;;;;;6263458;28;20048;-60
2022/04/27 09:16:00;;;;;;;14.35;7.97;;;;;;;;;;6263301;28;20045;-59
2022/04/27 09:22:20;;;;;;;15.30;8.77;;;;;;;;;;6262482;28;20522;-60
2022/04/27 09:25:32;;;;;;;13.38;8.10;;;;;;;;;;6259046;28;20137;-60
2022/04/27 09:28:33;;;;;;;12.73;7.30;;;;;;;;;;6261351;28;20087;-60
2022/04/27 09:31:37;;;;;;;17.40;8.20;;;;;;;;;;6263440;28;20516;-60
2022/04/27 09:34:49;;;;;;;15.05;8.00;;;;;;;;;;6264112;28;20053;-60
2022/04/27 09:37:49;;;;;;;13.55;6.80;;;;;;;;;;6258117;28;20111;-60
2022/04/27 09:40:56;;;;;;;12.95;7.10;;;;;;;;;;6265619;28;20555;-59
2022/04/27 09:43:57;;;;;;;13.88;7.63;;;;;;;;;;6262626;28;20076;-60
2022/04/27 09:46:59;;;;;;;14.32;8.02;;;;;;;;;;6262678;28;20049;-60
2022/04/27 09:49:59;;;;;;;12.32;6.57;;;;;;;;;;6264375;28;20041;-61
2022/04/27 09:53:00;;;;;;;16.65;7.70;;;;;;;;;;6262707;28;20068;-60
2022/04/27 09:56:02;;;;;;;13.52;6.85;;;;;;;;;;6263862;28;20084;-60
2022/04/27 09:59:09;;;;;;;10.43;6.45;;;;;;;;;;6254232;28;20041;-60
2022/04/27 10:02:13;;;;;;;15.00;6.35;;;;;;;;;;6262951;28;20416;-60
2022/04/27 10:05:14;;;;;;;11.75;6.95;;;;;;;;;;6259443;28;20052;-60
2022/04/27 10:08:15;;;;;;;14.40;7.30;;;;;;;;;;6263244;28;20052;-60
2022/04/27 10:11:16;;;;;;;13.30;7.65;;;;;;;;;;6262387;28;20145;-60
2022/04/27 10:14:17;;;;;;;13.73;7.70;;;;;;;;;;6268629;28;20048;-60
2022/04/27 10:17:18;;;;;;;12.73;7.18;;;;;;;;;;6266226;28;20057;-60
2022/04/27 10:20:30;;;;;;;14.48;7.65;;;;;;;;;;6265529;28;20037;-60
2022/04/27 10:23:34;;;;;;;;;;;;;;;;;;6266411;28;20500;-60
2022/04/27 10:26:35;;;;;;;14.38;8.27;;;;;;;;;;6267321;28;20371;-60
2022/04/27 10:29:36;;;;;;;12.98;7.45;;;;;;;;;;6265443;28;20047;-60
2022/04/27 10:32:46;;;;;;;12.07;6.97;;;;;;;;;;6265645;28;20179;-59
2022/04/27 10:35:47;;;;;;;14.35;7.57;;;;;;;;;;6265702;28;20057;-60
2022/04/27 10:39:12;;;;;;;14.40;7.68;;;;;;;;;;6267587;28;20127;-60
2022/04/27 10:42:19;;;;;;;14.48;7.97;;;;;;;;;;6264720;28;20559;-59
2022/04/27 10:45:23;;;;;;;15.27;8.10;;;;;;;;;;6268084;28;20049;-60
2022/04/27 10:48:28;;;;;;;12.65;7.38;;;;;;;;;;6267617;28;20049;-59
2022/04/27 10:52:01;;;;;;;14.07;7.53;;;;;;;;;;6266952;28;20045;-59
2022/04/27 10:55:03;;;;;;;11.95;6.88;;;;;;;;;;6260495;28;20504;-58
2022/04/27 10:58:13;;;;;;;;;;;;;;;;;;6269815;28;20084;-60
2022/04/27 11:01:18;;;;;;;14.13;8.27;;;;;;;;;;6268119;28;19931;-60
2022/04/27 11:04:19;;;;;;;14.40;7.95;;;;;;;;;;6267763;28;20447;-60
2022/04/27 11:07:43;;;;;;;14.07;7.60;;;;;;;;;;6264494;28;20076;-61
2022/04/27 11:10:44;;;;;;;13.23;8.57;;;;;;;;;;6257688;28;20072;-59
2022/04/27 11:13:45;;;;;;;16.90;9.43;;;;;;;;;;6265654;28;20531;-59
2022/04/27 11:16:49;;;;;;;19.10;8.70;;;;;;;;;;6265623;28;20807;-59
2022/04/27 11:19:50;;;;;;;14.75;7.82;;;;;;;;;;6266234;28;20049;-61
2022/04/27 11:22:51;;;;;;;11.73;6.47;;;;;;;;;;6266446;28;20103;-61
2022/04/27 11:25:52;;;;;;;13.45;6.93;;;;;;;;;;6266778;28;20084;-60
2022/04/27 11:28:53;;;;;;;12.90;7.70;;;;;;;;;;6267720;28;20064;-59
2022/04/27 11:31:54;;;;;;;13.83;7.37;;;;;;;;;;6266969;28;20083;-60
2022/04/27 11:34:54;;;;;;;12.63;7.00;;;;;;;;;;6264946;28;20053;-59
2022/04/27 11:37:56;;;;;;;13.50;7.68;;;;;;;;;;6266098;28;20084;-59
2022/04/27 11:40:56;;;;;;;12.70;7.35;;;;;;;;;;6264434;28;20045;-59
2022/04/27 11:43:57;;;;;;;13.95;7.80;;;;;;;;;;6264463;28;20131;-59
2022/04/27 11:46:58;;;;;;;14.68;8.45;;;;;;;;;;6265209;28;20053;-60
2022/04/27 11:50:03;;;;;;;12.25;7.10;;;;;;;;;;6266214;28;20072;-59
2022/04/27 11:53:11;;;;;;;11.98;6.70;;;;;;;;;;6265078;28;20060;-61
2022/04/27 11:56:11;;;;;;;16.92;8.27;;;;;;;;;;6264210;28;20049;-61
2022/04/27 11:59:12;;;;;;;18.52;9.38;;;;;;;;;;6244314;28;20481;-60
2022/04/27 12:02:13;;;;;;;15.25;9.48;;;;;;;;;;6250829;28;20094;-59
2022/04/27 12:05:15;;;;;;;12.93;7.80;;;;;;;;;;6266255;28;20057;-59
2022/04/27 12:08:22;;;;;;;12.18;6.72;;;;;;;;;;6268633;28;20068;-59
2022/04/27 12:11:23;;;;;;;10.93;6.63;;;;;;;;;;6268558;28;20052;-58
2022/04/27 12:14:24;;;;;;;11.63;6.90;;;;;;;;;;6264666;28;20130;-59
2022/04/27 12:17:45;;;;;;;14.63;6.47;;;;;;;;;;6261434;28;20087;-60
2022/04/27 12:20:48;;;;;;;14.88;7.85;;;;;;;;;;6263390;28;20048;-59
2022/04/27 12:23:49;;;;;;;16.50;8.65;;;;;;;;;;6262064;28;20053;-60
2022/04/27 12:26:49;;;;;;;22.80;10.57;;;;;;;;;;6259674;28;20084;-59
2022/04/27 12:30:04;;;;;;;18.98;9.30;;;;;;;;;;6261529;28;20756;-62
2022/04/27 12:33:05;;;;;;;15.82;8.50;;;;;;;;;;6255410;28;20145;-60
2022/04/27 12:39:25;;;;;;;15.52;7.20;;;;;;;;;;6260328;28;20538;-61
2022/04/27 12:42:26;;;;;;;13.32;7.13;;;;;;;;;;6259952;28;20045;-61
2022/04/27 12:45:27;;;;;;;13.23;7.65;;;;;;;;;;6262379;28;20037;-60
2022/04/27 12:48:30;;;;;;;17.17;8.30;;;;;;;;;;6260312;28;20059;-60
2022/04/27 12:51:33;;;;;;;20.63;8.90;;;;;;;;;;6262617;28;20053;-60
2022/04/27 12:54:35;;;;;;;18.20;8.73;;;;;;;;;;6263921;28;20063;-60
2022/04/27 12:57:48;;;;;;;16.77;8.55;;;;;;;;;;6262027;28;20136;-60
2022/04/27 13:00:50;;;;;;;18.30;8.90;;;;;;;;;;6258661;28;20073;-60
2022/04/27 13:03:50;;;;;;;19.98;9.57;;;;;;;;;;6260934;28;20045;-60
2022/04/27 13:06:51;;;;;;;17.52;8.82;;;;;;;;;;6261821;28;20423;-61
2022/04/27 13:13:14;;;;;;;18.17;8.95;;;;;;;;;;6260520;28;20075;-61
2022/04/27 13:16:15;;;;;;;14.70;8.63;;;;;;;;;;6260708;28;20041;-60
2022/04/27 13:19:16;;;;;;;14.07;7.68;;;;;;;;;;6260748;28;20044;-61
2022/04/27 13:22:16;;;;;;;13.65;7.80;;;;;;;;;;6258882;28;20072;-60
2022/04/27 13:25:17;;;;;;;13.38;6.93;;;;;;;;;;6260640;28;20053;-60
2022/04/27 13:28:18;;;;;;;12.50;7.20;;;;;;;;;;6259336;28;20052;-60
2022/04/27 13:31:19;;;;;;;13.20;6.93;;;;;;;;;;6258154;28;20141;-60
2022/04/27 13:34:20;;;;;;;12.95;6.45;;;;;;;;;;6259567;28;20053;-61
2022/04/27 13:37:20;;;;;;;12.07;6.80;;;;;;;;;;6257683;28;20468;-60
2022/04/27 13:40:21;;;;;;;14.48;7.22;;;;;;;;;;6252091;28;20876;-60
2022/04/27 13:43:22;;;;;;;12.15;7.60;;;;;;;;;;6253013;28;20502;-60
2022/04/27 13:46:23;;;;;;;15.40;8.07;;;;;;;;;;6254114;28;20151;-60
2022/04/27 13:49:23;;;;;;;14.15;7.28;;;;;;;;;;6254379;28;20099;-59
2022/04/27 13:52:24;;;;;;;17.13;7.13;;;;;;;;;;6254063;28;20045;-59
2022/04/27 13:55:25;;;;;;;11.57;6.35;;;;;;;;;;6255056;28;20090;-60
2022/04/27 13:58:27;;;;;;;11.20;6.63;;;;;;;;;;6254569;28;21248;-60
2022/04/27 14:01:28;;;;;;;;;;;;;;;;;;6256917;28;20065;-60
2022/04/27 14:04:28;;;;;;;11.60;6.18;;;;;;;;;;6256388;28;20895;-60
2022/04/27 14:07:29;;;;;;;14.27;6.97;;;;;;;;;;6258577;28;20061;-60
2022/04/27 14:10:30;;;;;;;10.57;6.35;;;;;;;;;;6255280;28;20045;-59
2022/04/27 14:13:30;;;;;;;9.75;6.30;;;;;;;;;;6257326;28;20140;-60
2022/04/27 14:19:51;;;;;;;12.00;6.65;;;;;;;;;;6253195;28;20103;-60
2022/04/27 14:22:51;;;;;;;19.58;8.45;;;;;;;;;;6257574;28;21109;-60
2022/04/27 14:25:54;;;;;;;16.30;8.85;;;;;;;;;;6258263;28;20049;-59
2022/04/27 14:28:55;;;;;;;17.60;8.85;;;;;;;;;;6258123;28;20052;-60
2022/04/27 14:31:58;;;;;;;17.05;8.30;;;;;;;;;;6253076;28;20045;-60
2022/04/27 14:34:59;;;;;;;17.27;8.40;;;;;;;;;;6255436;28;20609;-59
2022/04/27 14:38:01;;;;;;;12.90;7.63;;;;;;;;;;6254264;28;20049;-60
2022/04/27 14:41:01;;;;;;;14.07;7.40;;;;;;;;;;6250718;28;20738;-59
2022/04/27 14:44:02;;;;;;;17.35;8.48;;;;;;;;;;6254595;28;20049;-59
2022/04/27 14:47:03;;;;;;;22.45;9.25;;;;;;;;;;6255050;28;20164;-60
2022/04/27 14:50:05;;;;;;;16.30;8.65;;;;;;;;;;6251827;28;20133;-60
2022/04/27 14:53:06;;;;;;;;;;;;;;;;;;6254394;28;20056;-59
2022/04/27 14:56:07;;;;;;;15.07;8.18;;;;;;;;;;6253553;28;19971;-59
2022/04/27 14:59:07;;;;;;;13.52;7.60;;;;;;;;;;6253587;28;20056;-59
2022/04/27 15:02:09;;;;;;;14.13;8.45;;;;;;;;;;6251290;28;20052;-59
2022/04/27 15:05:11;;;;;;;23.27;11.15;;;;;;;;;;6253552;28;20135;-60
2022/04/27 15:08:12;;;;;;;17.33;9.13;;;;;;;;;;6253534;28;20139;-60
2022/04/27 15:11:12;;;;;;;21.20;11.50;;;;;;;;;;6249130;28;20052;-60
2022/04/27 15:14:13;;;;;;;17.67;9.20;;;;;;;;;;6257840;28;20551;-60
2022/04/27 15:17:14;;;;;;;19.30;10.02;;;;;;;;;;6256986;28;20059;-60
2022/04/27 15:23:34;;;;;;;20.75;9.70;;;;;;;;;;6258297;28;20080;-60
2022/04/27 15:29:54;;;;;;;25.05;13.23;;;;;;;;;;6257978;28;20049;-60
2022/04/27 15:32:56;;;;;;;28.65;16.23;;;;;;;;;;6255611;28;20053;-60
2022/04/27 15:35:56;;;;;;;27.80;16.13;;;;;;;;;;6257703;28;20059;-60
2022/04/27 15:38:57;;;;;;;29.65;15.30;;;;;;;;;;6257835;28;21215;-60
2022/04/27 15:42:04;;;;;;;28.10;14.63;;;;;;;;;;6254757;28;20134;-60
2022/04/27 15:45:05;;;;;;;28.30;15.07;;;;;;;;;;6257884;28;20080;-60
2022/04/27 15:48:06;;;;;;;25.95;13.95;;;;;;;;;;6254361;28;20053;-60
2022/04/27 15:51:07;;;;;;;26.48;12.70;;;;;;;;;;6255624;28;20062;-60
2022/04/27 15:54:08;;;;;;;20.80;11.70;;;;;;;;;;6255068;28;20408;-60
2022/04/27 15:57:09;;;;;;;21.27;10.30;;;;;;;;;;6252495;28;20563;-60
2022/04/27 16:00:12;;;;;;;21.10;10.52;;;;;;;;;;6254872;28;20067;-57
2022/04/27 16:03:13;;;;;;;17.73;9.90;;;;;;;;;;6254681;28;20073;-61
2022/04/27 16:06:13;;;;;;;21.55;11.13;;;;;;;;;;6256293;28;20934;-59
2022/04/27 16:09:14;;;;;;;21.40;11.90;;;;;;;;;;6257940;28;21067;-60
2022/04/27 16:12:14;;;;;;;15.98;8.68;;;;;;;;;;6254616;28;20063;-62
2022/04/27 16:15:15;;;;;;;22.55;9.82;;;;;;;;;;6257326;28;20692;-62
2022/04/27 16:18:16;;;;;;;18.42;7.57;;;;;;;;;;6257568;28;20102;-59
2022/04/27 16:24:38;;;;;;;23.83;9.88;;;;;;;;;;6253023;28;20503;-58
2022/04/27 16:27:39;;;;;;;20.38;9.30;;;;;;;;;;6255887;28;20052;-59
2022/04/27 16:30:41;;;;;;;19.25;8.05;;;;;;;;;;6254400;28;20432;-59
2022/04/27 16:33:42;;;;;;;;;;;;;;;;;;6254993;28;20088;-59
2022/04/27 16:36:43;;;;;;;12.43;7.68;;;;;;;;;;6254461;28;20014;-59
2022/04/27 16:39:44;;;;;;;14.00;8.15;;;;;;;;;;6256206;28;20052;-59
2022/04/27 16:42:45;;;;;;;16.17;8.75;;;;;;;;;;6253756;28;20171;-59
2022/04/27 16:45:45;;;;;;;15.90;9.02;;;;;;;;;;6255009;28;20669;-59
2022/04/27 16:48:46;;;;;;;16.05;9.75;;;;;;;;;;6256991;28;20052;-60
2022/04/27 16:51:47;;;;;;;18.48;10.55;;;;;;;;;;6253470;28;20110;-59
2022/04/27 16:54:47;;;;;;;18.67;11.50;;;;;;;;;;6250389;28;20754;-61
2022/04/27 16:57:49;;;;;;;22.17;13.48;;;;;;;;;;6253663;28;20086;-61
2022/04/27 17:00:52;;;;;;;17.98;11.15;;;;;;;;;;6254571;28;20085;-61
2022/04/27 17:03:53;;;;;;;20.95;12.18;;;;;;;;;;6255535;28;20045;-59
2022/04/27 17:06:53;;;;;;;21.55;10.25;;;;;;;;;;6255856;28;20131;-60
2022/04/27 17:09:54;;;;;;;14.52;8.18;;;;;;;;;;6254152;28;20084;-62
2022/04/27 17:12:54;;;;;;;20.27;9.70;;;;;;;;;;6254630;28;20037;-61
2022/04/27 17:15:56;;;;;;;16.67;9.27;;;;;;;;;;6252857;28;20052;-60
2022/04/27 17:18:57;;;;;;;19.50;10.38;;;;;;;;;;6255998;28;20055;-61
2022/04/27 17:21:57;;;;;;;23.33;11.52;;;;;;;;;;6259147;28;20049;-60
2022/04/27 17:24:58;;;;;;;26.40;10.80;;;;;;;;;;6261310;28;20230;-60
2022/04/27 17:27:58;;;;;;;25.70;12.70;;;;;;;;;;6264093;28;20053;-61
2022/04/27 17:30:59;;;;;;;25.45;11.55;;;;;;;;;;6260339;28;20084;-61
2022/04/27 17:34:00;;;;;;;17.98;8.75;;;;;;;;;;6261348;28;20053;-60
2022/04/27 17:37:00;;;;;;;27.20;12.27;;;;;;;;;;6262985;28;20136;-60
2022/04/27 17:40:01;;;;;;;33.60;13.77;;;;;;;;;;6261227;28;20059;-60
2022/04/27 17:43:02;;;;;;;47.97;18.25;;;;;;;;;;6261242;28;20102;-60
2022/04/27 17:46:04;;;;;;;27.17;14.00;;;;;;;;;;6262526;28;20057;-66
2022/04/27 17:49:04;;;;;;;21.43;12.40;;;;;;;;;;6262440;28;20073;-60
2022/04/27 17:52:05;;;;;;;21.30;11.77;;;;;;;;;;6259464;28;20572;-60
2022/04/27 17:55:08;;;;;;;18.40;10.40;;;;;;;;;;6258236;28;20044;-58
2022/04/27 17:58:09;;;;;;;15.48;8.15;;;;;;;;;;6257421;28;20140;-58
2022/04/27 18:01:10;;;;;;;15.88;9.48;;;;;;;;;;6255058;28;20053;-61
2022/04/27 18:04:11;;;;;;;21.70;13.23;;;;;;;;;;6255496;28;20060;-59
2022/04/27 18:07:14;;;;;;;25.15;15.20;;;;;;;;;;6258012;28;20423;-59
2022/04/27 18:10:15;;;;;;;21.38;12.48;;;;;;;;;;6255590;28;20071;-59
2022/04/27 18:13:16;;;;;;;20.23;11.77;;;;;;;;;;6257107;28;20083;-60
2022/04/27 18:16:17;;;;;;;17.90;9.98;;;;;;;;;;6257594;28;20564;-59
2022/04/27 18:19:18;;;;;;;17.85;9.93;;;;;;;;;;6258558;28;20060;-60
2022/04/27 18:22:19;;;;;;;21.95;10.77;;;;;;;;;;6255546;28;20059;-59
2022/04/27 18:25:19;;;;;;;16.80;8.95;;;;;;;;;;6256683;28;20122;-60